NJE800A LDSP-LFMN
Flight info
| Callsign | NJE800A |
|---|---|
| Flight time | 1h 14m |
| Altitude | 45000 |
| Route | TORPO DCT IBRID DCT TORTU DCT KERIT |
| Aircraft | C750/M-SBDE3FGHRWXY/S |
Departure
| Time | 2026-05-04 21:34 |
|---|---|
| Airport | Split Saint Jerome Airport (LDSP) |
Arrival
| Time | 2026-05-04 22:48 |
|---|---|
| Airport | Nice-Côte d'Azur Airport (LFMN) |
| Time | Latitude | Longitude | Altitude | Speed | Heading |
|---|---|---|---|---|---|
| 2026-05-04 21:30 | 43.53685 | 16.29567 | 66 ft | 1 kts | 336° |
| 2026-05-04 21:31 | 43.53672 | 16.29434 | 72 ft | 12 kts | 239° |
| 2026-05-04 21:31 | 43.53622 | 16.29333 | 78 ft | 15 kts | 236° |
| 2026-05-04 21:31 | 43.53547 | 16.29179 | 76 ft | 23 kts | 236° |
| 2026-05-04 21:32 | 43.53439 | 16.28978 | 76 ft | 29 kts | 234° |
| 2026-05-04 21:32 | 43.53316 | 16.28728 | 72 ft | 30 kts | 239° |
| 2026-05-04 21:32 | 43.53259 | 16.28613 | 75 ft | 4 kts | 229° |
| 2026-05-04 21:32 | 43.53244 | 16.28627 | 75 ft | 3 kts | 93° |
| 2026-05-04 21:33 | 43.53253 | 16.28644 | 75 ft | 2 kts | 49° |
| 2026-05-04 21:33 | 43.53279 | 16.28688 | 65 ft | 27 kts | 50° |
| 2026-05-04 21:33 | 43.53631 | 16.29322 | 78 ft | 135 kts | 52° |
| 2026-05-04 21:33 | 43.54213 | 16.30460 | 583 ft | 143 kts | 57° |
| 2026-05-04 21:34 | 43.54617 | 16.31791 | 1160 ft | 160 kts | 75° |
| 2026-05-04 21:34 | 43.54818 | 16.33351 | 1901 ft | 168 kts | 82° |
| 2026-05-04 21:34 | 43.55042 | 16.34904 | 2864 ft | 161 kts | 79° |
| 2026-05-04 21:34 | 43.55262 | 16.36361 | 3815 ft | 152 kts | 83° |
| 2026-05-04 21:35 | 43.55295 | 16.37933 | 4244 ft | 183 kts | 91° |
| 2026-05-04 21:35 | 43.55216 | 16.39885 | 4593 ft | 214 kts | 95° |
| 2026-05-04 21:35 | 43.55070 | 16.42008 | 5158 ft | 230 kts | 96° |
| 2026-05-04 21:35 | 43.54811 | 16.44182 | 5886 ft | 232 kts | 111° |
| 2026-05-04 21:36 | 43.53750 | 16.45773 | 6571 ft | 228 kts | 153° |
| 2026-05-04 21:36 | 43.52237 | 16.46286 | 7445 ft | 225 kts | 181° |
| 2026-05-04 21:36 | 43.50745 | 16.45736 | 8533 ft | 224 kts | 207° |
| 2026-05-04 21:36 | 43.49399 | 16.44616 | 9561 ft | 229 kts | 211° |
| 2026-05-04 21:37 | 43.47984 | 16.43451 | 10223 ft | 244 kts | 209° |
| 2026-05-04 21:37 | 43.46552 | 16.42346 | 11364 ft | 233 kts | 209° |
| 2026-05-04 21:37 | 43.45329 | 16.40869 | 12017 ft | 244 kts | 232° |
| 2026-05-04 21:37 | 43.44330 | 16.38984 | 12959 ft | 244 kts | 232° |
| 2026-05-04 21:38 | 43.43289 | 16.37126 | 13822 ft | 248 kts | 231° |
| 2026-05-04 21:38 | 43.42222 | 16.35239 | 14601 ft | 251 kts | 231° |
| 2026-05-04 21:38 | 43.41156 | 16.33324 | 15425 ft | 253 kts | 232° |
| 2026-05-04 21:38 | 43.40082 | 16.31389 | 16212 ft | 257 kts | 231° |
| 2026-05-04 21:39 | 43.38986 | 16.29425 | 17010 ft | 261 kts | 231° |
| 2026-05-04 21:39 | 43.37870 | 16.27426 | 17831 ft | 265 kts | 231° |
| 2026-05-04 21:39 | 43.36736 | 16.25397 | 18639 ft | 270 kts | 231° |
| 2026-05-04 21:39 | 43.35587 | 16.23341 | 19400 ft | 273 kts | 231° |
| 2026-05-04 21:40 | 43.34525 | 16.21161 | 20097 ft | 280 kts | 245° |
| 2026-05-04 21:40 | 43.34206 | 16.18521 | 20896 ft | 283 kts | 271° |
| 2026-05-04 21:40 | 43.34493 | 16.15844 | 21751 ft | 284 kts | 279° |
| 2026-05-04 21:40 | 43.34878 | 16.13172 | 22574 ft | 287 kts | 280° |
| 2026-05-04 21:41 | 43.35254 | 16.10465 | 23382 ft | 290 kts | 280° |
| 2026-05-04 21:41 | 43.35614 | 16.07717 | 24091 ft | 294 kts | 279° |
| 2026-05-04 21:41 | 43.35974 | 16.04970 | 24895 ft | 292 kts | 280° |
| 2026-05-04 21:41 | 43.36341 | 16.02189 | 25451 ft | 299 kts | 280° |
| 2026-05-04 21:42 | 43.36713 | 15.99370 | 26168 ft | 300 kts | 279° |
| 2026-05-04 21:42 | 43.37090 | 15.96533 | 26837 ft | 304 kts | 280° |
| 2026-05-04 21:42 | 43.37471 | 15.93669 | 27542 ft | 306 kts | 280° |
| 2026-05-04 21:42 | 43.37857 | 15.90785 | 28247 ft | 308 kts | 280° |
| 2026-05-04 21:43 | 43.38248 | 15.87876 | 28973 ft | 311 kts | 280° |
| 2026-05-04 21:43 | 43.38644 | 15.84946 | 29713 ft | 313 kts | 280° |
| 2026-05-04 21:43 | 43.39044 | 15.81990 | 30399 ft | 316 kts | 280° |
| 2026-05-04 21:43 | 43.39449 | 15.79014 | 31062 ft | 317 kts | 280° |
| 2026-05-04 21:44 | 43.39856 | 15.76035 | 31745 ft | 317 kts | 281° |
| 2026-05-04 21:44 | 43.40265 | 15.73045 | 32406 ft | 319 kts | 281° |
| 2026-05-04 21:44 | 43.40678 | 15.70047 | 33050 ft | 320 kts | 281° |
| 2026-05-04 21:44 | 43.41094 | 15.67037 | 33695 ft | 321 kts | 282° |
| 2026-05-04 21:45 | 43.41513 | 15.64015 | 34299 ft | 322 kts | 282° |
| 2026-05-04 21:45 | 43.41935 | 15.60992 | 34911 ft | 322 kts | 282° |
| 2026-05-04 21:45 | 43.42354 | 15.58013 | 35195 ft | 309 kts | 282° |
| 2026-05-04 21:46 | 43.43169 | 15.52254 | 35140 ft | 316 kts | 282° |
| 2026-05-04 21:46 | 43.44062 | 15.46066 | 35167 ft | 343 kts | 282° |
| 2026-05-04 21:46 | 43.44537 | 15.42816 | 35202 ft | 359 kts | 282° |
| 2026-05-04 21:47 | 43.45045 | 15.39374 | 35236 ft | 374 kts | 283° |
| 2026-05-04 21:47 | 43.45576 | 15.35800 | 35269 ft | 389 kts | 283° |
| 2026-05-04 21:47 | 43.46131 | 15.32092 | 35299 ft | 402 kts | 283° |
| 2026-05-04 21:47 | 43.46707 | 15.28260 | 35323 ft | 415 kts | 283° |
| 2026-05-04 21:48 | 43.47300 | 15.24341 | 35657 ft | 419 kts | 283° |
| 2026-05-04 21:48 | 43.47893 | 15.20426 | 36258 ft | 417 kts | 283° |
| 2026-05-04 21:48 | 43.48487 | 15.16520 | 36796 ft | 416 kts | 283° |
| 2026-05-04 21:48 | 43.49079 | 15.12629 | 37378 ft | 414 kts | 283° |
| 2026-05-04 21:49 | 43.49669 | 15.08756 | 37937 ft | 413 kts | 283° |
| 2026-05-04 21:49 | 43.50259 | 15.04890 | 38489 ft | 412 kts | 283° |
| 2026-05-04 21:49 | 43.50849 | 15.01037 | 38978 ft | 411 kts | 283° |
| 2026-05-04 21:49 | 43.51444 | 14.97164 | 39091 ft | 419 kts | 283° |
| 2026-05-04 21:50 | 43.52058 | 14.93191 | 39091 ft | 429 kts | 283° |
| 2026-05-04 21:50 | 43.53337 | 14.84986 | 39104 ft | 447 kts | 283° |
| 2026-05-04 21:51 | 43.54672 | 14.76493 | 39111 ft | 459 kts | 283° |
| 2026-05-04 21:51 | 43.56046 | 14.67807 | 39114 ft | 468 kts | 283° |
| 2026-05-04 21:52 | 43.57448 | 14.58993 | 39111 ft | 473 kts | 283° |
| 2026-05-04 21:52 | 43.58870 | 14.50104 | 39105 ft | 476 kts | 283° |
| 2026-05-04 21:53 | 43.60305 | 14.41172 | 39105 ft | 478 kts | 283° |
| 2026-05-04 21:53 | 43.61335 | 14.32109 | 39088 ft | 481 kts | 274° |
| 2026-05-04 21:54 | 43.61129 | 14.24429 | 39099 ft | 482 kts | 269° |
| 2026-05-04 21:54 | 43.60817 | 14.15189 | 39102 ft | 482 kts | 269° |
| 2026-05-04 21:55 | 43.60477 | 14.05948 | 39121 ft | 482 kts | 269° |
| 2026-05-04 21:55 | 43.60308 | 14.01418 | 39807 ft | 464 kts | 269° |
| 2026-05-04 21:55 | 43.60148 | 13.97013 | 40087 ft | 460 kts | 269° |
| 2026-05-04 21:56 | 43.59816 | 13.88090 | 40079 ft | 471 kts | 269° |
| 2026-05-04 21:56 | 43.59464 | 13.79007 | 40093 ft | 477 kts | 268° |
| 2026-05-04 21:57 | 43.59105 | 13.69820 | 40081 ft | 482 kts | 268° |
| 2026-05-04 21:57 | 43.58734 | 13.60566 | 40090 ft | 484 kts | 268° |
| 2026-05-04 21:58 | 43.58358 | 13.51354 | 40093 ft | 485 kts | 268° |
| 2026-05-04 21:58 | 43.57971 | 13.42085 | 40096 ft | 484 kts | 268° |
| 2026-05-04 21:59 | 43.57575 | 13.32761 | 40096 ft | 484 kts | 268° |
| 2026-05-04 21:59 | 43.57174 | 13.23498 | 40096 ft | 484 kts | 268° |
| 2026-05-04 22:00 | 43.56768 | 13.14297 | 40098 ft | 484 kts | 268° |
| 2026-05-04 22:00 | 43.56353 | 13.05058 | 40106 ft | 483 kts | 267° |
| 2026-05-04 22:01 | 43.55931 | 12.95817 | 40110 ft | 483 kts | 267° |
| 2026-05-04 22:01 | 43.55501 | 12.86573 | 40117 ft | 483 kts | 267° |
| 2026-05-04 22:02 | 43.55063 | 12.77336 | 40115 ft | 483 kts | 267° |
| 2026-05-04 22:02 | 43.54618 | 12.68084 | 40119 ft | 484 kts | 266° |
| 2026-05-04 22:03 | 43.54164 | 12.58829 | 40121 ft | 484 kts | 266° |
| 2026-05-04 22:03 | 43.53704 | 12.49578 | 40119 ft | 484 kts | 266° |
| 2026-05-04 22:04 | 43.53236 | 12.40325 | 40130 ft | 484 kts | 266° |
| 2026-05-04 22:04 | 43.52760 | 12.31074 | 40133 ft | 484 kts | 266° |
| 2026-05-04 22:05 | 43.52277 | 12.21827 | 40134 ft | 484 kts | 266° |
| 2026-05-04 22:05 | 43.51786 | 12.12573 | 40129 ft | 484 kts | 266° |
| 2026-05-04 22:06 | 43.51288 | 12.03327 | 40132 ft | 484 kts | 265° |
| 2026-05-04 22:06 | 43.50783 | 11.94091 | 40132 ft | 484 kts | 265° |
| 2026-05-04 22:07 | 43.50270 | 11.84850 | 40129 ft | 484 kts | 265° |
| 2026-05-04 22:07 | 43.49749 | 11.75601 | 40125 ft | 484 kts | 265° |
| 2026-05-04 22:08 | 43.49222 | 11.66367 | 40133 ft | 484 kts | 265° |
| 2026-05-04 22:08 | 43.48686 | 11.57124 | 40136 ft | 484 kts | 265° |
| 2026-05-04 22:09 | 43.48143 | 11.47877 | 40131 ft | 485 kts | 265° |
| 2026-05-04 22:09 | 43.47685 | 11.38631 | 40128 ft | 484 kts | 267° |
| 2026-05-04 22:10 | 43.47463 | 11.29359 | 40142 ft | 484 kts | 267° |
| 2026-05-04 22:10 | 43.47199 | 11.20089 | 40131 ft | 485 kts | 267° |
| 2026-05-04 22:11 | 43.46949 | 11.10870 | 40125 ft | 485 kts | 267° |
| 2026-05-04 22:11 | 43.46679 | 11.01594 | 40127 ft | 485 kts | 267° |
| 2026-05-04 22:12 | 43.46406 | 10.92321 | 40129 ft | 485 kts | 267° |
| 2026-05-04 22:12 | 43.46125 | 10.83046 | 40127 ft | 485 kts | 267° |
| 2026-05-04 22:13 | 43.45836 | 10.73772 | 40126 ft | 485 kts | 267° |
| 2026-05-04 22:13 | 43.45540 | 10.64501 | 40108 ft | 485 kts | 267° |
| 2026-05-04 22:14 | 43.45235 | 10.55228 | 40107 ft | 486 kts | 266° |
| 2026-05-04 22:14 | 43.44924 | 10.45936 | 40110 ft | 486 kts | 266° |
| 2026-05-04 22:15 | 43.44604 | 10.36659 | 40034 ft | 479 kts | 266° |
| 2026-05-04 22:15 | 43.44449 | 10.32185 | 39419 ft | 458 kts | 266° |
| 2026-05-04 22:15 | 43.44296 | 10.27896 | 38827 ft | 441 kts | 266° |
| 2026-05-04 22:15 | 43.44148 | 10.23757 | 38197 ft | 425 kts | 266° |
| 2026-05-04 22:16 | 43.44005 | 10.19766 | 37673 ft | 411 kts | 266° |
| 2026-05-04 22:16 | 43.43863 | 10.15867 | 37121 ft | 406 kts | 266° |
| 2026-05-04 22:16 | 43.43719 | 10.11990 | 36572 ft | 406 kts | 265° |
| 2026-05-04 22:16 | 43.43574 | 10.08106 | 36036 ft | 406 kts | 265° |
| 2026-05-04 22:17 | 43.43430 | 10.04232 | 35499 ft | 405 kts | 265° |
| 2026-05-04 22:17 | 43.43284 | 10.00367 | 34963 ft | 404 kts | 264° |
| 2026-05-04 22:17 | 43.43137 | 9.96519 | 34417 ft | 402 kts | 264° |
| 2026-05-04 22:17 | 43.42990 | 9.92689 | 33890 ft | 400 kts | 264° |
| 2026-05-04 22:18 | 43.42839 | 9.88841 | 33353 ft | 406 kts | 264° |
| 2026-05-04 22:18 | 43.42684 | 9.84930 | 32815 ft | 412 kts | 264° |
| 2026-05-04 22:18 | 43.42528 | 9.80955 | 32268 ft | 422 kts | 264° |
| 2026-05-04 22:18 | 43.42369 | 9.76959 | 31715 ft | 426 kts | 264° |
| 2026-05-04 22:19 | 43.42204 | 9.72859 | 31149 ft | 433 kts | 264° |
| 2026-05-04 22:19 | 43.42032 | 9.68635 | 30569 ft | 440 kts | 264° |
| 2026-05-04 22:19 | 43.41866 | 9.64521 | 29970 ft | 434 kts | 264° |
| 2026-05-04 22:19 | 43.41697 | 9.60388 | 29388 ft | 431 kts | 264° |
| 2026-05-04 22:20 | 43.41525 | 9.56282 | 28817 ft | 428 kts | 264° |
| 2026-05-04 22:20 | 43.41352 | 9.52206 | 28253 ft | 426 kts | 263° |
| 2026-05-04 22:20 | 43.41182 | 9.48158 | 27694 ft | 423 kts | 263° |
| 2026-05-04 22:20 | 43.41009 | 9.44125 | 27144 ft | 423 kts | 263° |
| 2026-05-04 22:21 | 43.40835 | 9.40099 | 26584 ft | 420 kts | 263° |
| 2026-05-04 22:21 | 43.40662 | 9.36102 | 26032 ft | 418 kts | 263° |
| 2026-05-04 22:21 | 43.40488 | 9.32132 | 25485 ft | 415 kts | 263° |
| 2026-05-04 22:21 | 43.40314 | 9.28181 | 24936 ft | 413 kts | 263° |
| 2026-05-04 22:22 | 43.40139 | 9.24253 | 24400 ft | 410 kts | 263° |
| 2026-05-04 22:22 | 43.39964 | 9.20350 | 23859 ft | 408 kts | 263° |
| 2026-05-04 22:22 | 43.39788 | 9.16465 | 23283 ft | 405 kts | 263° |
| 2026-05-04 22:22 | 43.39613 | 9.12617 | 22747 ft | 402 kts | 263° |
| 2026-05-04 22:23 | 43.39438 | 9.08794 | 22226 ft | 399 kts | 263° |
| 2026-05-04 22:23 | 43.39261 | 9.04979 | 21695 ft | 398 kts | 263° |
| 2026-05-04 22:23 | 43.39086 | 9.01192 | 21172 ft | 395 kts | 264° |
| 2026-05-04 22:23 | 43.38909 | 8.97437 | 20654 ft | 392 kts | 264° |
| 2026-05-04 22:24 | 43.38591 | 8.93744 | 20135 ft | 387 kts | 258° |
| 2026-05-04 22:24 | 43.38119 | 8.90120 | 19634 ft | 384 kts | 257° |
| 2026-05-04 22:24 | 43.37659 | 8.86517 | 19130 ft | 381 kts | 258° |
| 2026-05-04 22:24 | 43.37219 | 8.82936 | 18630 ft | 379 kts | 258° |
| 2026-05-04 22:25 | 43.36784 | 8.79428 | 18115 ft | 376 kts | 258° |
| 2026-05-04 22:25 | 43.36336 | 8.75905 | 17606 ft | 373 kts | 258° |
| 2026-05-04 22:25 | 43.35891 | 8.72411 | 17116 ft | 370 kts | 258° |
| 2026-05-04 22:25 | 43.35453 | 8.68945 | 17036 ft | 370 kts | 258° |
| 2026-05-04 22:26 | 43.35012 | 8.65465 | 17037 ft | 370 kts | 258° |
| 2026-05-04 22:26 | 43.34568 | 8.61985 | 17039 ft | 370 kts | 258° |
| 2026-05-04 22:26 | 43.34151 | 8.58505 | 16926 ft | 370 kts | 260° |
| 2026-05-04 22:26 | 43.33879 | 8.55000 | 16517 ft | 368 kts | 262° |
| 2026-05-04 22:27 | 43.33592 | 8.51522 | 16110 ft | 365 kts | 261° |
| 2026-05-04 22:27 | 43.33292 | 8.48070 | 15709 ft | 363 kts | 261° |
| 2026-05-04 22:27 | 43.33149 | 8.44613 | 15253 ft | 366 kts | 272° |
| 2026-05-04 22:27 | 43.33622 | 8.41188 | 14848 ft | 365 kts | 279° |
| 2026-05-04 22:28 | 43.34118 | 8.37784 | 14480 ft | 362 kts | 278° |
| 2026-05-04 22:28 | 43.34564 | 8.34386 | 14115 ft | 361 kts | 277° |
| 2026-05-04 22:28 | 43.35015 | 8.30993 | 13740 ft | 360 kts | 278° |
| 2026-05-04 22:28 | 43.35487 | 8.27613 | 13319 ft | 359 kts | 278° |
| 2026-05-04 22:29 | 43.35954 | 8.24251 | 12796 ft | 357 kts | 278° |
| 2026-05-04 22:29 | 43.36408 | 8.20900 | 12288 ft | 356 kts | 278° |
| 2026-05-04 22:29 | 43.36857 | 8.17566 | 11782 ft | 354 kts | 278° |
| 2026-05-04 22:29 | 43.37308 | 8.14256 | 11285 ft | 346 kts | 278° |
| 2026-05-04 22:30 | 43.37739 | 8.11109 | 10789 ft | 325 kts | 278° |
| 2026-05-04 22:30 | 43.38140 | 8.08141 | 10295 ft | 308 kts | 277° |
| 2026-05-04 22:30 | 43.38520 | 8.05302 | 9796 ft | 297 kts | 277° |
| 2026-05-04 22:30 | 43.38891 | 8.02536 | 9254 ft | 292 kts | 277° |
| 2026-05-04 22:31 | 43.39257 | 7.99808 | 8732 ft | 289 kts | 277° |
| 2026-05-04 22:31 | 43.39620 | 7.97102 | 8222 ft | 287 kts | 277° |
| 2026-05-04 22:31 | 43.39981 | 7.94406 | 7731 ft | 287 kts | 276° |
| 2026-05-04 22:31 | 43.40339 | 7.91730 | 7239 ft | 280 kts | 276° |
| 2026-05-04 22:32 | 43.40687 | 7.89130 | 6751 ft | 273 kts | 278° |
| 2026-05-04 22:32 | 43.40995 | 7.86584 | 6257 ft | 267 kts | 275° |
| 2026-05-04 22:32 | 43.41211 | 7.84077 | 5739 ft | 262 kts | 272° |
| 2026-05-04 22:32 | 43.41416 | 7.81609 | 5228 ft | 258 kts | 273° |
| 2026-05-04 22:33 | 43.41603 | 7.79168 | 4726 ft | 255 kts | 274° |
| 2026-05-04 22:33 | 43.41750 | 7.76752 | 4214 ft | 252 kts | 274° |
| 2026-05-04 22:33 | 43.41870 | 7.74416 | 4015 ft | 239 kts | 273° |
| 2026-05-04 22:33 | 43.41989 | 7.72170 | 3980 ft | 228 kts | 272° |
| 2026-05-04 22:34 | 43.42116 | 7.69963 | 3983 ft | 229 kts | 273° |
| 2026-05-04 22:34 | 43.42243 | 7.67750 | 3988 ft | 229 kts | 273° |
| 2026-05-04 22:34 | 43.42362 | 7.65592 | 3980 ft | 228 kts | 272° |
| 2026-05-04 22:34 | 43.42487 | 7.63396 | 3983 ft | 229 kts | 273° |
| 2026-05-04 22:35 | 43.42608 | 7.61232 | 3983 ft | 223 kts | 273° |
| 2026-05-04 22:35 | 43.42719 | 7.59076 | 3997 ft | 231 kts | 271° |
| 2026-05-04 22:35 | 43.42843 | 7.56868 | 3985 ft | 232 kts | 274° |
| 2026-05-04 22:35 | 43.42933 | 7.54677 | 3992 ft | 228 kts | 273° |
| 2026-05-04 22:36 | 43.43017 | 7.52520 | 3994 ft | 233 kts | 273° |
| 2026-05-04 22:36 | 43.43102 | 7.50308 | 3996 ft | 232 kts | 273° |
| 2026-05-04 22:36 | 43.43180 | 7.48117 | 3986 ft | 231 kts | 273° |
| 2026-05-04 22:36 | 43.43259 | 7.45935 | 3988 ft | 226 kts | 273° |
| 2026-05-04 22:37 | 43.43344 | 7.43770 | 3986 ft | 227 kts | 273° |
| 2026-05-04 22:37 | 43.43424 | 7.41600 | 3980 ft | 230 kts | 273° |
| 2026-05-04 22:37 | 43.43505 | 7.39395 | 3982 ft | 229 kts | 273° |
| 2026-05-04 22:37 | 43.43588 | 7.37193 | 3988 ft | 230 kts | 273° |
| 2026-05-04 22:38 | 43.43673 | 7.35010 | 3987 ft | 230 kts | 273° |
| 2026-05-04 22:38 | 43.43758 | 7.32819 | 3982 ft | 232 kts | 273° |
| 2026-05-04 22:38 | 43.43843 | 7.30593 | 3987 ft | 233 kts | 273° |
| 2026-05-04 22:38 | 43.43927 | 7.28370 | 3989 ft | 232 kts | 273° |
| 2026-05-04 22:39 | 43.44007 | 7.26164 | 3985 ft | 230 kts | 273° |
| 2026-05-04 22:39 | 43.44089 | 7.23956 | 3990 ft | 228 kts | 273° |
| 2026-05-04 22:39 | 43.44175 | 7.21776 | 3990 ft | 228 kts | 273° |
| 2026-05-04 22:39 | 43.44253 | 7.19557 | 3986 ft | 232 kts | 272° |
| 2026-05-04 22:40 | 43.44332 | 7.17367 | 3985 ft | 227 kts | 273° |
| 2026-05-04 22:40 | 43.44413 | 7.15179 | 3990 ft | 233 kts | 273° |
| 2026-05-04 22:40 | 43.44496 | 7.12984 | 3988 ft | 227 kts | 273° |
| 2026-05-04 22:40 | 43.44874 | 7.10900 | 3955 ft | 224 kts | 296° |
| 2026-05-04 22:41 | 43.45540 | 7.08956 | 3990 ft | 227 kts | 292° |
| 2026-05-04 22:41 | 43.45914 | 7.06839 | 3979 ft | 229 kts | 278° |
| 2026-05-04 22:41 | 43.46077 | 7.04635 | 3992 ft | 235 kts | 275° |
| 2026-05-04 22:41 | 43.46282 | 7.02437 | 3996 ft | 232 kts | 280° |
| 2026-05-04 22:42 | 43.46946 | 7.00532 | 3898 ft | 222 kts | 317° |
| 2026-05-04 22:42 | 43.48258 | 6.99523 | 3947 ft | 215 kts | 351° |
| 2026-05-04 22:42 | 43.49699 | 6.99667 | 3956 ft | 206 kts | 26° |
| 2026-05-04 22:42 | 43.50851 | 7.00765 | 3984 ft | 202 kts | 46° |
| 2026-05-04 22:43 | 43.51863 | 7.02120 | 3747 ft | 200 kts | 48° |
| 2026-05-04 22:43 | 43.52838 | 7.03456 | 3462 ft | 196 kts | 48° |
| 2026-05-04 22:43 | 43.53479 | 7.04334 | 3287 ft | 196 kts | 48° |
| 2026-05-04 22:43 | 43.54436 | 7.05645 | 3015 ft | 193 kts | 49° |
| 2026-05-04 22:44 | 43.55372 | 7.06927 | 2760 ft | 182 kts | 48° |
| 2026-05-04 22:44 | 43.56230 | 7.08101 | 2520 ft | 167 kts | 49° |
| 2026-05-04 22:44 | 43.57036 | 7.09204 | 2302 ft | 158 kts | 50° |
| 2026-05-04 22:44 | 43.57759 | 7.10188 | 2080 ft | 132 kts | 50° |
| 2026-05-04 22:45 | 43.58351 | 7.10993 | 1919 ft | 111 kts | 50° |
| 2026-05-04 22:45 | 43.59415 | 7.12455 | 1650 ft | 109 kts | 51° |
| 2026-05-04 22:45 | 43.59956 | 7.13200 | 1510 ft | 111 kts | 51° |
| 2026-05-04 22:46 | 43.60505 | 7.13956 | 1362 ft | 111 kts | 49° |
| 2026-05-04 22:46 | 43.61055 | 7.14706 | 1180 ft | 115 kts | 45° |
| 2026-05-04 22:46 | 43.61641 | 7.15512 | 1018 ft | 122 kts | 44° |
| 2026-05-04 22:46 | 43.62250 | 7.16336 | 922 ft | 122 kts | 43° |
| 2026-05-04 22:47 | 43.62876 | 7.17162 | 740 ft | 127 kts | 43° |
| 2026-05-04 22:47 | 43.63504 | 7.18008 | 589 ft | 126 kts | 46° |
| 2026-05-04 22:47 | 43.64104 | 7.18901 | 405 ft | 126 kts | 47° |
| 2026-05-04 22:47 | 43.64725 | 7.19751 | 217 ft | 125 kts | 44° |
| 2026-05-04 22:48 | 43.65337 | 7.20602 | 40 ft | 123 kts | 45° |
| 2026-05-04 22:48 | 43.65887 | 7.21369 | 17 ft | 101 kts | 46° |
| 2026-05-04 22:48 | 43.66283 | 7.21918 | 19 ft | 57 kts | 45° |
| 2026-05-04 22:48 | 43.66417 | 7.22103 | 19 ft | 6 kts | 45° |
| 2026-05-04 22:49 | 43.66456 | 7.22123 | 18 ft | 6 kts | 0° |
| 2026-05-04 22:49 | 43.66492 | 7.22102 | 19 ft | 4 kts | 322° |
| 2026-05-04 22:49 | 43.66510 | 7.22080 | 17 ft | 2 kts | 318° |
| 2026-05-04 22:49 | 43.66517 | 7.22071 | 17 ft | 0 kts | 319° |
| 2026-05-04 22:50 | 43.66520 | 7.22069 | 17 ft | 1 kts | 319° |
| 2026-05-04 22:50 | 43.66522 | 7.22066 | 17 ft | 0 kts | 319° |
| 2026-05-04 22:50 | 43.66524 | 7.22064 | 17 ft | 1 kts | 319° |
| 2026-05-04 22:50 | 43.66529 | 7.22058 | 17 ft | 1 kts | 319° |
| 2026-05-04 22:51 | 43.66534 | 7.22052 | 17 ft | 1 kts | 319° |
| 2026-05-04 22:51 | 43.66541 | 7.22043 | 17 ft | 2 kts | 319° |
| 2026-05-04 22:51 | 43.66545 | 7.22038 | 17 ft | 0 kts | 319° |
| 2026-05-04 22:51 | 43.66546 | 7.22037 | 17 ft | 0 kts | 319° |
| 2026-05-04 22:52 | 43.66564 | 7.22022 | 17 ft | 5 kts | 342° |
| 2026-05-04 22:52 | 43.66602 | 7.22039 | 17 ft | 7 kts | 36° |
| 2026-05-04 22:52 | 43.66641 | 7.22077 | 17 ft | 8 kts | 4° |
| 2026-05-04 22:52 | 43.66679 | 7.22022 | 18 ft | 9 kts | 314° |
| 2026-05-04 22:53 | 43.66693 | 7.21957 | 18 ft | 7 kts | 276° |
| 2026-05-04 22:53 | 43.66702 | 7.21940 | 18 ft | 0 kts | 321° |